Ford, Virginia
Current Conditions -  °F | °C
As of 12:55 AM on Monday 20 Oct 2014 (Local Time) from KBKT Reporting Station
Clear Clear  
Wind Chill: 41°   Ceiling: Unl
Heat Index: 41°   Visibility: 4mi
Dew Point: 41°   Wind: 0mph
Humidity: 98%   Direction: NA
Pressure: 30.12"   Gusts: NA
Location:  37.15°N, 77.75°W
Report Text: KBKT 200455Z AUTO 00000KT 4SM CLR 05/05 A3012 RMK AO1 T00520049 401750052
Loading
Personal Weather Stations






























Interactive Weather Map
Tropical Storm Tracking
New forecast layout! Learn more

10-Day Weather Forecast

Advertisements
Track Severe Weather on mobile